Time;durP1;ratioP1;P1;durP2;ratioP2;P2;SDS_P1;SDS_P2;PMS_P1;PMS_P2;Temp;Humidity;BMP_temperature;BMP_pressure;BME280_temperature;BME280_humidity;BME280_pressure;Samples;Min_cycle;Max_cycle;Signal;HPM_P1;HPM_P2
2022/04/01 00:00:42;;;;;;;30.90;13.05;;;;;;;8.25;69.42;97998.69;5005276;28;20137;-83
2022/04/01 00:03:09;;;;;;;32.45;13.50;;;;;;;8.27;69.41;98011.75;4980008;28;20034;-83
2022/04/01 00:05:38;;;;;;;26.90;11.70;;;;;;;8.27;69.50;98011.75;4990049;28;20588;-83
2022/04/01 00:08:06;;;;;;;32.15;14.15;;;;;;;8.27;69.50;98007.28;4990347;28;20041;-83
2022/04/01 00:10:33;;;;;;;27.92;12.38;;;;;;;8.27;69.48;98015.22;4982873;28;20515;-83
2022/04/01 00:13:00;;;;;;;35.97;14.80;;;;;;;8.28;69.80;98018.69;5013236;28;20520;-84
2022/04/01 00:15:27;;;;;;;29.13;13.18;;;;;;;8.27;69.65;98017.06;4995315;28;20050;-83
2022/04/01 00:17:54;;;;;;;35.28;13.77;;;;;;;8.27;69.52;98015.22;4997603;28;20156;-83
2022/04/01 00:20:21;;;;;;;33.00;13.48;;;;;;;8.26;69.96;98018.84;5003311;28;20746;-84
2022/04/01 00:22:48;;;;;;;32.70;14.25;;;;;;;8.27;69.88;98015.22;4985904;28;20046;-84
2022/04/01 00:25:15;;;;;;;31.73;15.02;;;;;;;8.27;70.29;98022.34;4998412;28;20079;-83
2022/04/01 00:27:42;;;;;;;27.98;12.63;;;;;;;8.27;70.10;98025.00;4996996;28;20050;-83
2022/04/01 00:30:09;;;;;;;29.92;12.20;;;;;;;8.26;70.11;98018.84;4987677;28;20045;-83
2022/04/01 00:32:36;;;;;;;34.67;13.30;;;;;;;8.26;69.88;98020.66;4983665;28;20073;-83
2022/04/01 00:35:04;;;;;;;27.70;12.35;;;;;;;8.26;69.93;98020.66;4984131;28;20117;-83
2022/04/01 00:37:31;;;;;;;30.17;14.25;;;;;;;8.26;69.94;98012.75;4999185;28;20056;-84
2022/04/01 00:39:58;;;;;;;32.58;13.27;;;;;;;8.25;69.90;98014.56;4978788;28;20423;-83
2022/04/01 00:42:27;;;;;;;29.55;12.73;;;;;;;8.24;69.75;98020.84;4996649;28;20049;-83
2022/04/01 00:44:54;;;;;;;31.60;14.35;;;;;;;8.24;69.95;98020.84;4984367;28;20045;-83
2022/04/01 00:47:21;;;;;;;33.47;14.65;;;;;;;8.25;69.66;98022.50;5000306;28;20046;-83
2022/04/01 00:49:49;;;;;;;30.50;13.38;;;;;;;8.24;69.92;98014.72;4990103;28;20076;-83
2022/04/01 00:52:17;;;;;;;33.75;14.18;;;;;;;8.24;69.99;98014.72;5018434;28;20090;-83
2022/04/01 00:54:44;;;;;;;29.48;14.07;;;;;;;8.23;69.73;98013.91;4987156;28;20077;-84
2022/04/01 00:57:18;;;;;;;33.83;14.50;;;;;;;8.22;69.76;98014.91;4989800;28;20097;-84
2022/04/01 00:59:45;;;;;;;30.30;12.60;;;;;;;8.21;69.97;98013.22;5004623;28;20133;-83
2022/04/01 01:02:16;;;;;;;30.30;13.48;;;;;;;8.23;69.72;98023.66;5016198;28;21669;-83
2022/04/01 01:04:44;;;;;;;32.45;14.45;;;;;;;8.20;69.97;98019.53;4990798;28;20442;-84
2022/04/01 01:07:11;;;;;;;30.02;13.43;;;;;;;8.20;69.85;98021.34;5001125;28;20049;-84
2022/04/01 01:09:38;;;;;;;31.05;13.43;;;;;;;8.19;70.09;98019.66;5017479;28;20052;-84
2022/04/01 01:12:06;;;;;;;34.40;14.32;;;;;;;8.18;69.86;98020.69;4972530;28;20140;-84
2022/04/01 01:14:36;;;;;;;31.83;14.02;;;;;;;8.17;70.10;98013.75;4991123;28;20092;-84
2022/04/01 01:17:10;;;;;;;38.55;14.63;;;;;;;8.15;69.94;98007.78;4984412;28;20046;-83
2022/04/01 01:19:37;;;;;;;26.27;12.30;;;;;;;8.14;69.89;98008.75;4989184;28;20054;-83
2022/04/01 01:22:04;;;;;;;28.65;13.07;;;;;;;8.14;69.98;98014.91;4982848;28;20057;-83
2022/04/01 01:24:37;;;;;;;28.90;12.75;;;;;;;8.00;70.14;98012.91;4972190;28;20111;-83
2022/04/01 01:27:06;;;;;;;28.42;12.88;;;;;;;7.81;70.15;98019.31;4986273;28;20589;-83
2022/04/01 01:29:34;;;;;;;30.33;13.35;;;;;;;7.81;69.59;98011.38;5002839;28;20511;-83
2022/04/01 01:32:04;;;;;;;27.77;12.48;;;;;;;7.65;69.95;98006.06;4994306;28;20518;-83
2022/04/01 01:34:35;;;;;;;26.95;11.93;;;;;;;7.69;70.20;98015.34;4972205;28;20405;-83
2022/04/01 01:37:02;;;;;;;26.55;12.38;;;;;;;7.71;70.04;98011.56;4967649;28;20104;-83
2022/04/01 01:39:29;;;;;;;25.80;12.25;;;;;;;7.75;69.63;98006.75;5002507;28;20049;-84
2022/04/01 01:41:56;;;;;;;26.63;11.60;;;;;;;7.52;70.48;98010.00;4986617;28;20064;-83
2022/04/01 01:44:26;;;;;;;23.10;11.15;;;;;;;7.57;70.21;98012.16;4987537;28;20037;-84
2022/04/01 01:46:53;;;;;;;26.92;12.38;;;;;;;7.46;70.42;98005.38;5003858;28;20069;-84
2022/04/01 01:49:21;;;;;;;27.55;11.18;;;;;;;7.55;69.88;98016.78;4971470;28;20045;-83
2022/04/01 01:54:46;;;;;;;25.65;12.10;;;;;;;7.24;71.11;98008.59;4988750;28;20050;-84
2022/04/01 01:57:31;;;;;;;23.60;11.13;;;;;;;7.21;70.66;98011.56;4986849;28;20053;-83
2022/04/01 01:59:59;;;;;;;24.00;11.00;;;;;;;7.18;70.57;98005.63;4970940;28;20041;-83
2022/04/01 02:02:26;;;;;;;20.63;9.80;;;;;;;7.16;70.37;98004.13;4969672;28;20050;-84
2022/04/01 02:04:53;;;;;;;28.35;11.40;;;;;;;7.31;70.05;98002.53;5000789;28;20037;-83
2022/04/01 02:07:24;;;;;;;23.77;10.70;;;;;;;6.98;71.28;98006.84;4987048;28;20057;-84
2022/04/01 02:09:51;;;;;;;23.05;10.35;;;;;;;7.20;70.48;97999.34;4999360;28;20554;-84
2022/04/01 02:12:18;;;;;;;20.25;9.98;;;;;;;7.29;70.20;97993.13;4973604;28;20049;-84
2022/04/01 02:14:45;;;;;;;23.08;10.10;;;;;;;7.39;70.20;97999.91;5001691;28;20045;-84
2022/04/01 02:17:12;;;;;;;19.42;9.68;;;;;;;7.17;70.74;97997.84;4984440;28;20053;-83
2022/04/01 02:19:39;;;;;;;22.63;10.70;;;;;;;7.22;70.72;98002.66;4956688;28;20124;-84
2022/04/01 02:22:07;;;;;;;21.77;9.48;;;;;;;7.02;70.71;98004.72;4983928;28;20049;-83
2022/04/01 02:24:36;;;;;;;24.15;9.75;;;;;;;7.16;70.04;98001.47;4972741;28;20041;-83
2022/04/01 02:27:04;;;;;;;17.17;8.55;;;;;;;7.21;70.27;98004.47;5001236;28;20091;-84
2022/04/01 02:29:31;;;;;;;16.30;8.23;;;;;;;7.19;69.91;97998.50;4984120;28;20401;-83
2022/04/01 02:32:16;;;;;;;16.80;8.30;;;;;;;7.27;69.93;98001.19;4960335;28;20512;-83
2022/04/01 02:35:04;;;;;;;16.73;8.52;;;;;;;7.32;69.88;97998.88;4950797;28;20060;-83
2022/04/01 02:37:34;;;;;;;16.55;8.20;;;;;;;7.37;70.00;98004.50;5004719;28;20050;-83
2022/04/01 02:40:03;;;;;;;16.95;8.20;;;;;;;7.42;70.10;98008.50;4983482;28;20048;-83
2022/04/01 02:42:30;;;;;;;18.55;8.82;;;;;;;7.44;70.17;98009.16;4988966;28;20045;-84
2022/04/01 02:44:57;;;;;;;17.65;8.77;;;;;;;7.46;69.86;98020.41;4989331;28;20049;-83
2022/04/01 02:47:27;;;;;;;19.42;8.82;;;;;;;7.48;69.72;98015.75;4979784;28;20056;-83
2022/04/01 02:49:54;;;;;;;15.95;8.27;;;;;;;7.49;69.50;98020.06;5003453;28;20058;-83
2022/04/01 02:52:21;;;;;;;19.58;9.40;;;;;;;7.49;69.52;98020.91;4980146;28;20065;-83
2022/04/01 02:54:49;;;;;;;18.17;8.75;;;;;;;7.50;69.74;98022.53;4982507;28;20049;-83
2022/04/01 02:57:16;;;;;;;17.30;8.80;;;;;;;7.51;69.37;98018.09;4984294;28;20042;-83
2022/04/01 02:59:44;;;;;;;18.08;7.97;;;;;;;7.51;69.26;98028.66;4968043;28;20052;-83
2022/04/01 03:02:11;;;;;;;18.38;7.82;;;;;;;7.50;69.04;98027.81;4965695;28;20041;-83
2022/04/01 03:04:38;;;;;;;14.10;7.88;;;;;;;7.41;68.97;98028.81;4982177;28;20049;-83
2022/04/01 03:07:05;;;;;;;17.27;8.32;;;;;;;7.48;68.96;98028.97;4999968;28;20042;-83
2022/04/01 03:09:33;;;;;;;15.27;8.27;;;;;;;7.50;69.34;98024.34;4947592;28;20413;-83
2022/04/01 03:12:26;;;;;;;17.98;8.85;;;;;;;7.48;69.86;98021.03;4970670;28;20049;-83
2022/04/01 03:15:13;;;;;;;16.10;7.70;;;;;;;7.50;69.70;98029.66;4904824;28;20046;-84
2022/04/01 03:18:07;;;;;;;17.90;8.97;;;;;;;7.50;70.05;98030.47;4948155;28;20052;-81
2022/04/01 03:20:39;;;;;;;17.02;8.48;;;;;;;7.52;70.02;98030.31;4994393;28;20053;-83
2022/04/01 03:23:06;;;;;;;20.13;9.18;;;;;;;7.53;70.10;98027.53;5001799;28;20056;-81
2022/04/01 03:25:39;;;;;;;15.98;8.07;;;;;;;7.53;70.01;98034.59;4979984;28;20038;-81
2022/04/01 03:28:17;;;;;;;17.13;7.65;;;;;;;7.54;70.22;98033.63;4958638;28;20084;-81
2022/04/01 03:30:50;;;;;;;16.77;8.30;;;;;;;7.54;69.85;98031.81;4964602;28;20042;-81
2022/04/01 03:33:21;;;;;;;17.25;8.02;;;;;;;7.54;69.78;98034.44;4986728;28;20049;-83
2022/04/01 03:35:48;;;;;;;21.05;8.48;;;;;;;7.56;69.60;98029.03;4967061;28;20428;-81
2022/04/01 03:38:19;;;;;;;15.77;8.60;;;;;;;7.55;69.74;98030.81;5017986;28;20601;-82
2022/04/01 03:40:49;;;;;;;16.58;8.60;;;;;;;7.55;69.73;98040.56;5000183;28;20061;-82
2022/04/01 03:43:23;;;;;;;19.58;8.13;;;;;;;7.53;69.65;98035.44;4981399;28;20169;-81
2022/04/01 03:45:54;;;;;;;15.98;7.90;;;;;;;7.55;69.90;98043.19;4982717;28;20046;-82
2022/04/01 03:48:31;;;;;;;15.10;8.05;;;;;;;7.55;70.30;98035.28;4975737;28;20049;-83
2022/04/01 03:50:58;;;;;;;16.58;7.78;;;;;;;7.55;70.29;98029.97;4952184;28;20085;-81
2022/04/01 03:53:29;;;;;;;17.58;8.07;;;;;;;7.56;70.09;98031.66;4967767;28;20042;-81
2022/04/01 03:56:06;;;;;;;16.90;8.55;;;;;;;7.54;70.00;98031.81;4977445;28;20041;-81
2022/04/01 03:59:12;;;;;;;16.50;7.53;;;;;;;7.53;70.12;98027.53;4842630;29;20043;-82
2022/04/01 04:01:42;;;;;;;16.70;9.35;;;;;;;7.54;70.18;98042.38;4909907;29;20056;-82
2022/04/01 04:04:09;;;;;;;18.38;8.30;;;;;;;7.54;70.47;98031.81;4928091;28;20047;-81
2022/04/01 04:06:38;;;;;;;16.27;8.38;;;;;;;7.53;70.51;98032.81;4980463;28;20121;-82
2022/04/01 04:09:05;;;;;;;16.70;8.88;;;;;;;7.52;70.30;98039.06;4960063;28;20121;-84
2022/04/01 04:11:34;;;;;;;18.65;8.02;;;;;;;7.53;70.25;98039.88;4946185;28;20048;-82
2022/04/01 04:14:15;;;;;;;16.77;7.82;;;;;;;7.51;70.10;98037.41;4969188;28;20371;-81
2022/04/01 04:16:46;;;;;;;17.30;8.57;;;;;;;7.49;70.15;98034.09;4969137;28;20186;-82
2022/04/01 04:19:28;;;;;;;17.13;8.80;;;;;;;7.43;69.77;98047.09;4970665;28;20115;-81
2022/04/01 04:22:27;;;;;;;15.13;7.50;;;;;;;7.48;69.68;98043.03;4952825;28;20084;-82
2022/04/01 04:24:59;;;;;;;19.08;8.23;;;;;;;7.47;70.01;98041.34;4905694;28;20046;-83
2022/04/01 04:27:30;;;;;;;13.55;7.43;;;;;;;7.47;69.61;98049.28;4971438;28;20046;-82
2022/04/01 04:30:08;;;;;;;16.13;8.07;;;;;;;7.46;69.92;98052.91;4964563;28;20066;-82
2022/04/01 04:32:56;;;;;;;16.85;7.60;;;;;;;7.44;70.38;98051.41;4967771;28;20433;-80
2022/04/01 04:35:25;;;;;;;16.10;6.97;;;;;;;7.48;69.95;98056.22;4948263;28;20398;-81
2022/04/01 04:37:54;;;;;;;13.95;6.28;;;;;;;7.48;69.69;98058.88;4971288;28;20494;-81
2022/04/01 04:40:21;;;;;;;13.23;6.03;;;;;;;7.48;69.72;98058.88;4971730;28;20125;-81
2022/04/01 04:43:02;;;;;;;12.50;5.07;;;;;;;7.47;69.22;98066.94;4972267;28;20061;-81
2022/04/01 04:45:29;;;;;;;10.05;5.13;;;;;;;7.47;69.38;98065.13;4981059;28;20058;-81
2022/04/01 04:48:00;;;;;;;8.98;5.03;;;;;;;7.48;68.86;98066.78;4985844;28;20623;-81
2022/04/01 04:50:27;;;;;;;9.55;5.32;;;;;;;7.47;69.05;98075.69;4974867;28;20041;-80
2022/04/01 04:52:55;;;;;;;10.82;4.60;;;;;;;7.45;68.87;98064.44;4991065;28;20567;-81
2022/04/01 04:55:23;;;;;;;10.20;5.43;;;;;;;7.44;68.74;98065.44;5007865;28;20571;-82
2022/04/01 04:58:21;;;;;;;9.93;5.30;;;;;;;7.41;69.19;98068.41;4970970;28;20136;-81
2022/04/01 05:01:01;;;;;;;8.32;5.10;;;;;;;7.39;69.26;98073.84;4961142;28;20103;-81
2022/04/01 05:03:47;;;;;;;9.70;4.70;;;;;;;7.41;69.39;98075.50;4983666;28;20060;-81
2022/04/01 05:06:17;;;;;;;10.25;5.30;;;;;;;7.41;69.52;98080.78;5000311;28;20493;-81
2022/04/01 05:09:17;;;;;;;11.43;5.75;;;;;;;7.42;69.91;98082.44;4994496;28;20386;-81
2022/04/01 05:12:35;;;;;;;11.75;5.20;;;;;;;7.31;69.79;98091.47;4962280;28;20501;-81
2022/04/01 05:15:34;;;;;;;11.90;5.93;;;;;;;7.36;69.54;98092.66;4916849;28;20279;-81
2022/04/01 05:18:23;;;;;;;12.80;6.38;;;;;;;7.28;70.10;98092.63;4989290;28;20079;-81
2022/04/01 05:20:56;;;;;;;11.30;5.40;;;;;;;7.37;69.63;98093.47;4960048;28;20141;-81
2022/04/01 05:23:48;;;;;;;10.30;6.00;;;;;;;7.32;69.58;98103.69;4962601;28;20144;-81
2022/04/01 05:26:22;;;;;;;12.70;6.40;;;;;;;7.34;69.11;98105.16;4983525;28;20133;-81
2022/04/01 05:29:17;;;;;;;13.45;6.40;;;;;;;7.29;69.30;98110.09;4961023;28;20128;-81
2022/04/01 05:31:59;;;;;;;14.38;6.40;;;;;;;7.25;68.41;98114.06;4966678;28;20054;-81
2022/04/01 05:34:40;;;;;;;13.50;6.40;;;;;;;7.24;68.63;98111.56;4986431;28;20046;-81
2022/04/01 05:37:07;;;;;;;13.52;6.32;;;;;;;7.30;69.16;98109.13;4966030;28;20405;-81
2022/04/01 05:39:38;;;;;;;13.48;6.97;;;;;;;7.29;68.97;98120.66;4991893;28;20404;-81
2022/04/01 05:42:09;;;;;;;16.23;7.75;;;;;;;7.29;68.93;98118.00;5007805;28;20046;-81
2022/04/01 05:44:43;;;;;;;12.88;6.82;;;;;;;7.29;68.80;98125.94;5003863;28;20053;-81
2022/04/01 05:47:12;;;;;;;14.77;7.22;;;;;;;7.29;68.53;98133.03;4987093;28;20472;-81
2022/04/01 05:49:42;;;;;;;16.00;7.60;;;;;;;7.28;68.75;98128.75;4983365;28;20038;-80
2022/04/01 05:52:12;;;;;;;14.65;7.88;;;;;;;7.28;68.54;98134.03;4973729;28;20489;-81
2022/04/01 05:54:41;;;;;;;15.02;7.55;;;;;;;7.26;68.30;98134.19;4960108;28;20405;-81
2022/04/01 05:57:10;;;;;;;19.58;9.80;;;;;;;7.26;68.44;98128.91;4979370;28;20054;-80
2022/04/01 05:59:38;;;;;;;18.08;9.05;;;;;;;7.25;68.17;98132.53;4986446;28;20045;-81
2022/04/01 06:02:30;;;;;;;20.40;8.98;;;;;;;7.15;68.03;98137.09;5005833;28;20060;-80
2022/04/01 06:05:17;;;;;;;19.27;9.43;;;;;;;7.18;67.95;98142.88;4949766;28;20536;-81
2022/04/01 06:08:06;;;;;;;21.65;9.80;;;;;;;7.20;67.83;98147.16;4973273;28;20041;-83
2022/04/01 06:10:38;;;;;;;19.25;8.38;;;;;;;7.14;67.63;98148.63;4906123;28;20101;-80
2022/04/01 06:13:54;;;;;;;16.83;8.20;;;;;;;7.09;67.83;98154.34;4868770;28;20069;-81
2022/04/01 06:16:53;;;;;;;16.17;8.05;;;;;;;7.06;68.14;98154.66;4918497;28;20047;-81
2022/04/01 06:19:36;;;;;;;17.38;8.63;;;;;;;7.07;67.94;98151.06;4876023;28;20042;-81
2022/04/01 06:22:05;;;;;;;17.58;8.70;;;;;;;7.12;68.13;98156.72;4934472;28;20063;-81
2022/04/01 06:25:00;;;;;;;19.75;9.68;;;;;;;7.12;68.22;98154.06;4913563;28;20054;-81
2022/04/01 06:27:42;;;;;;;20.27;9.43;;;;;;;7.05;67.92;98162.75;4900118;28;20058;-81
2022/04/01 06:30:10;;;;;;;18.27;8.98;;;;;;;7.14;67.63;98169.72;4904438;28;20052;-81
2022/04/01 06:33:01;;;;;;;20.90;9.70;;;;;;;7.00;67.84;98162.41;4898186;28;20055;-81
2022/04/01 06:35:47;;;;;;;18.73;8.40;;;;;;;7.02;67.59;98169.19;4911717;28;20054;-81
2022/04/01 06:38:45;;;;;;;22.77;9.93;;;;;;;6.99;67.75;98166.81;4898640;28;20576;-82
2022/04/01 06:41:23;;;;;;;21.05;10.15;;;;;;;6.99;67.58;98172.09;4927566;28;20451;-82
2022/04/01 06:44:02;;;;;;;22.80;10.52;;;;;;;7.02;67.78;98179.72;4953387;28;20056;-82
2022/04/01 06:46:44;;;;;;;23.27;10.52;;;;;;;6.99;67.54;98182.66;4969904;28;20057;-82
2022/04/01 06:49:14;;;;;;;21.85;9.93;;;;;;;6.98;67.67;98183.66;4982583;28;20045;-82
2022/04/01 06:51:45;;;;;;;22.88;10.77;;;;;;;6.99;67.53;98187.09;4993484;28;20084;-83
2022/04/01 06:54:49;;;;;;;20.00;9.75;;;;;;;6.92;67.97;98182.47;4946417;28;20047;-82
2022/04/01 06:57:45;;;;;;;24.88;10.82;;;;;;;6.97;68.38;98187.25;4958364;28;20054;-83
2022/04/01 07:00:26;;;;;;;25.50;11.52;;;;;;;6.96;68.24;98183.78;5001128;28;20052;-82
2022/04/01 07:02:53;;;;;;;26.05;10.98;;;;;;;7.00;68.17;98191.44;5028886;28;20389;-82
2022/04/01 07:05:20;;;;;;;27.17;11.13;;;;;;;7.00;68.11;98189.59;4982235;28;20065;-83
2022/04/01 07:07:48;;;;;;;22.08;10.70;;;;;;;7.00;68.12;98189.59;4997331;28;20125;-83
2022/04/01 07:10:16;;;;;;;26.88;11.93;;;;;;;6.93;67.86;98193.84;4983445;28;20519;-83
2022/04/01 07:12:43;;;;;;;26.40;12.05;;;;;;;6.95;68.19;98194.53;4968411;28;20394;-83
2022/04/01 07:15:11;;;;;;;25.90;12.27;;;;;;;6.96;68.32;98194.34;4982941;28;20605;-84
2022/04/01 07:17:38;;;;;;;26.70;12.02;;;;;;;6.98;67.64;98198.66;4970357;28;20343;-80
2022/04/01 07:20:11;;;;;;;29.02;13.48;;;;;;;6.94;67.78;98196.31;5028534;28;20061;-81
2022/04/01 07:22:47;;;;;;;28.58;12.77;;;;;;;6.94;68.02;98200.75;5014688;28;20045;-82
2022/04/01 07:25:14;;;;;;;25.63;11.25;;;;;;;6.95;68.15;98191.88;4978778;28;20057;-82
2022/04/01 07:27:41;;;;;;;28.20;12.10;;;;;;;6.96;67.78;98190.88;4986623;28;20045;-83
2022/04/01 07:30:08;;;;;;;25.90;11.98;;;;;;;6.96;67.59;98196.16;5001209;28;20042;-82
2022/04/01 07:32:36;;;;;;;27.33;11.70;;;;;;;6.94;67.75;98196.31;4949641;28;20116;-82
2022/04/01 07:35:08;;;;;;;26.67;12.40;;;;;;;6.90;67.54;98196.78;4978596;28;20041;-83
2022/04/01 07:37:36;;;;;;;23.40;11.63;;;;;;;6.91;67.94;98201.06;4981546;28;21636;-83
2022/04/01 07:40:24;;;;;;;28.52;12.55;;;;;;;6.86;68.04;98203.34;4922104;28;20054;-84
2022/04/01 07:42:52;;;;;;;27.13;11.43;;;;;;;6.87;68.28;98210.25;4974668;28;20045;-81
2022/04/01 07:45:19;;;;;;;25.00;10.98;;;;;;;6.89;67.98;98205.66;4978554;28;20527;-82
2022/04/01 07:47:47;;;;;;;26.95;12.10;;;;;;;6.85;68.08;98202.50;4959242;28;20045;-83
2022/04/01 07:50:15;;;;;;;25.30;12.10;;;;;;;6.85;68.40;98207.78;4983321;28;20043;-83
2022/04/01 07:52:43;;;;;;;24.55;10.82;;;;;;;6.86;68.21;98217.34;4996181;28;20128;-82
2022/04/01 07:55:13;;;;;;;25.92;11.65;;;;;;;6.86;68.73;98214.72;4968935;28;20049;-81
2022/04/01 07:57:45;;;;;;;24.08;11.13;;;;;;;6.80;68.17;98215.34;4976142;28;20042;-82
2022/04/01 08:00:17;;;;;;;25.13;10.83;;;;;;;6.76;68.61;98213.97;4982389;28;20060;-81
2022/04/01 08:02:47;;;;;;;25.42;11.18;;;;;;;6.82;68.35;98221.28;4992074;28;20441;-81
2022/04/01 08:05:14;;;;;;;20.13;10.23;;;;;;;6.76;68.24;98216.59;4975615;28;20049;-82
2022/04/01 08:07:42;;;;;;;19.95;9.38;;;;;;;6.70;68.07;98227.78;4991374;28;20073;-82
2022/04/01 08:10:09;;;;;;;20.50;9.50;;;;;;;6.68;68.34;98227.91;4970581;28;22601;-81
2022/04/01 08:12:42;;;;;;;22.25;9.55;;;;;;;6.69;68.47;98226.94;4979822;28;20398;-82
2022/04/01 08:15:09;;;;;;;21.15;9.65;;;;;;;6.69;68.52;98231.38;4963449;28;20426;-82
2022/04/01 08:17:36;;;;;;;22.27;10.48;;;;;;;6.71;68.16;98238.16;4970070;28;20056;-84
2022/04/01 08:20:04;;;;;;;23.13;10.00;;;;;;;6.71;68.51;98230.25;4969383;28;20445;-82
2022/04/01 08:22:30;;;;;;;23.05;10.10;;;;;;;6.63;69.16;98238.09;4986026;28;20064;-83
2022/04/01 08:24:57;;;;;;;20.75;10.00;;;;;;;6.70;68.86;98238.31;4980314;28;20045;-83
2022/04/01 08:27:24;;;;;;;16.73;7.82;;;;;;;6.70;68.46;98246.22;4976995;28;20091;-83
2022/04/01 08:29:55;;;;;;;18.30;8.68;;;;;;;6.48;68.61;98247.47;4983003;28;20072;-83
2022/04/01 08:32:22;;;;;;;21.00;8.57;;;;;;;6.29;69.29;98251.09;4983281;28;20108;-82
2022/04/01 08:34:49;;;;;;;15.15;6.82;;;;;;;6.20;69.39;98255.41;4985342;28;20050;-83
2022/04/01 08:37:16;;;;;;;14.15;6.78;;;;;;;6.17;69.25;98257.53;4979850;28;20053;-83
2022/04/01 08:39:48;;;;;;;14.90;6.28;;;;;;;6.18;69.19;98256.53;4952998;28;20053;-84
2022/04/01 08:42:16;;;;;;;15.60;8.23;;;;;;;6.33;69.01;98248.97;4974731;28;20038;-81
2022/04/01 08:44:49;;;;;;;13.00;6.22;;;;;;;6.21;69.00;98265.00;4957995;28;20046;-84
2022/04/01 08:47:15;;;;;;;15.98;8.35;;;;;;;6.22;69.33;98263.19;4929174;28;20544;-81
2022/04/01 08:49:42;;;;;;;17.40;7.60;;;;;;;6.28;69.21;98267.84;4946298;28;20046;-82
2022/04/01 08:52:10;;;;;;;15.15;6.97;;;;;;;6.37;68.89;98276.72;4944071;28;20046;-81
2022/04/01 08:54:41;;;;;;;15.65;7.28;;;;;;;6.35;68.56;98273.38;4944558;28;20458;-83
2022/04/01 08:57:08;;;;;;;12.88;6.88;;;;;;;6.23;68.96;98276.22;4932476;28;20565;-83
2022/04/01 08:59:37;;;;;;;13.25;6.93;;;;;;;6.29;68.54;98283.53;4951136;28;22552;-83
2022/04/01 09:02:06;;;;;;;14.73;6.43;;;;;;;6.19;69.15;98285.38;4935223;28;20193;-81
2022/04/01 09:04:33;;;;;;;12.45;6.47;;;;;;;6.11;68.90;98287.06;4999108;28;20119;-82
2022/04/01 09:07:14;;;;;;;15.95;7.60;;;;;;;5.97;70.01;98285.75;4987564;28;20532;-82
2022/04/01 09:09:42;;;;;;;13.15;6.53;;;;;;;6.04;69.93;98292.94;4974887;28;20045;-82
2022/04/01 09:12:11;;;;;;;12.95;6.72;;;;;;;6.14;69.25;98295.53;4984220;28;20501;-83
2022/04/01 09:14:40;;;;;;;13.80;6.78;;;;;;;6.15;69.04;98291.91;4988875;28;20107;-82
2022/04/01 09:17:10;;;;;;;12.02;6.03;;;;;;;5.91;69.27;98295.03;4998660;28;20037;-83
2022/04/01 09:19:39;;;;;;;16.00;7.43;;;;;;;6.02;69.38;98304.59;4949187;28;20115;-83
2022/04/01 09:22:23;;;;;;;14.43;7.75;;;;;;;5.96;70.48;98302.56;4989015;28;20056;-83
2022/04/01 09:25:00;;;;;;;12.38;6.85;;;;;;;5.86;70.55;98308.66;4962109;28;20473;-83
2022/04/01 09:27:47;;;;;;;15.20;6.97;;;;;;;5.93;70.10;98298.38;4996498;28;20041;-82
2022/04/01 09:30:17;;;;;;;13.45;6.25;;;;;;;6.00;69.69;98306.53;4933780;28;20041;-82
2022/04/01 09:32:45;;;;;;;14.85;6.80;;;;;;;6.01;69.88;98310.84;5000073;28;20045;-83
2022/04/01 09:35:13;;;;;;;14.27;5.93;;;;;;;6.02;70.36;98318.59;4965497;28;20404;-82
2022/04/01 09:37:44;;;;;;;13.05;6.18;;;;;;;5.97;70.44;98328.75;4977531;28;20049;-83
2022/04/01 09:40:19;;;;;;;10.90;5.22;;;;;;;5.94;69.51;98329.03;4974439;28;20056;-83
2022/04/01 09:42:50;;;;;;;9.60;5.43;;;;;;;5.99;69.51;98324.16;4996158;28;20046;-83
2022/04/01 09:45:28;;;;;;;12.57;5.93;;;;;;;5.79;71.08;98333.88;5005756;28;20049;-83
2022/04/01 09:48:09;;;;;;;7.85;5.18;;;;;;;5.82;69.36;98340.69;4970372;28;20072;-83
2022/04/01 09:50:39;;;;;;;9.05;4.53;;;;;;;5.66;69.82;98331.56;4969678;28;20074;-83
2022/04/01 09:53:07;;;;;;;7.72;4.45;;;;;;;5.62;70.44;98334.59;4987314;28;20073;-83
2022/04/01 09:55:40;;;;;;;7.32;4.20;;;;;;;5.79;69.22;98333.88;4989300;28;20685;-85
2022/04/01 09:58:07;;;;;;;9.45;5.22;;;;;;;5.70;69.26;98337.38;5015245;28;20080;-83
2022/04/01 10:00:37;;;;;;;9.80;5.07;;;;;;;5.63;69.63;98338.94;4983135;28;20455;-82
2022/04/01 10:03:06;;;;;;;9.13;5.07;;;;;;;5.65;68.81;98345.72;4998851;28;20505;-83
2022/04/01 10:05:35;;;;;;;11.90;6.15;;;;;;;5.61;70.23;98346.13;4999951;28;20131;-83
2022/04/01 10:08:32;;;;;;;14.88;7.40;;;;;;;5.52;70.19;98352.22;5006412;28;20038;-84
2022/04/01 10:11:00;;;;;;;13.90;7.22;;;;;;;5.54;70.73;98348.47;4929782;28;20122;-84
2022/04/01 10:13:30;;;;;;;13.45;7.10;;;;;;;5.50;69.97;98343.66;5002807;28;20055;-84
2022/04/01 10:15:58;;;;;;;14.65;8.23;;;;;;;5.57;71.04;98347.38;5004774;28;20055;-82
2022/04/01 10:18:47;;;;;;;13.68;7.38;;;;;;;5.64;69.85;98353.75;4991573;28;20451;-82
2022/04/01 10:21:19;;;;;;;15.45;8.10;;;;;;;5.65;69.66;98347.53;5035077;28;20045;-81
2022/04/01 10:23:55;;;;;;;19.90;9.52;;;;;;;5.61;69.18;98354.84;5007940;28;20079;-82
2022/04/01 10:26:22;;;;;;;17.38;8.52;;;;;;;5.66;68.80;98362.34;4972177;28;20100;-82
2022/04/01 10:28:52;;;;;;;16.15;8.40;;;;;;;5.54;69.27;98355.56;4988046;28;20049;-81
2022/04/01 10:31:20;;;;;;;17.88;10.75;;;;;;;5.48;69.35;98356.13;5006496;28;20040;-82
2022/04/01 10:33:47;;;;;;;19.88;9.02;;;;;;;5.58;69.63;98362.22;4993407;28;20762;-81
2022/04/01 10:36:15;;;;;;;16.58;9.32;;;;;;;5.58;69.83;98355.13;5003353;28;20044;-81
2022/04/01 10:38:42;;;;;;;16.67;9.30;;;;;;;5.60;69.72;98368.19;4985274;28;20045;-82
2022/04/01 10:41:12;;;;;;;17.25;9.18;;;;;;;5.36;69.32;98368.59;5021427;28;20048;-81
2022/04/01 10:43:41;;;;;;;19.88;9.98;;;;;;;5.51;69.61;98374.28;5003317;28;20507;-82
2022/04/01 10:46:13;;;;;;;18.90;9.73;;;;;;;5.78;69.39;98373.56;5016144;28;20049;-82
2022/04/01 10:52:18;;;;;;;26.70;12.77;;;;;;;5.57;69.78;98374.56;4933338;28;20064;-83
2022/04/01 10:54:48;;;;;;;22.80;10.80;;;;;;;5.55;70.84;98376.50;4926355;28;20043;-82
2022/04/01 10:57:30;;;;;;;20.83;10.98;;;;;;;5.51;70.63;98385.63;4967142;28;20081;-82
2022/04/01 11:00:13;;;;;;;28.20;11.73;;;;;;;5.25;71.37;98397.69;4966605;28;20046;-81
2022/04/01 11:02:42;;;;;;;27.52;12.50;;;;;;;5.47;70.26;98386.03;4945583;28;20053;-81
2022/04/01 11:05:25;;;;;;;27.55;13.93;;;;;;;5.12;67.90;98398.78;5013182;28;20048;-80
2022/04/01 11:08:14;;;;;;;31.00;15.00;;;;;;;5.37;68.09;98392.16;4953667;28;20051;-80
2022/04/01 11:11:12;;;;;;;30.60;13.88;;;;;;;5.11;69.03;98391.84;4978076;28;20052;-80
2022/04/01 11:13:39;;;;;;;31.27;14.18;;;;;;;5.27;69.33;98396.59;4919215;28;20045;-80
2022/04/01 11:16:19;;;;;;;32.00;13.95;;;;;;;5.21;68.92;98403.19;5005267;28;20488;-81
2022/04/01 11:19:14;;;;;;;27.00;13.93;;;;;;;5.23;69.02;98403.91;4968944;28;20050;-81
2022/04/01 11:21:43;;;;;;;32.03;14.18;;;;;;;5.11;68.73;98415.50;4959569;28;20705;-80
2022/04/01 11:24:36;;;;;;;32.40;15.60;;;;;;;5.15;68.54;98400.31;5011499;28;20053;-80
2022/04/01 11:27:08;;;;;;;33.38;14.68;;;;;;;4.91;69.90;98406.78;4933198;28;20092;-80
2022/04/01 11:29:34;;;;;;;34.78;15.63;;;;;;;4.98;70.13;98407.03;5006325;28;20041;-80
2022/04/01 11:32:04;;;;;;;38.05;15.18;;;;;;;5.06;70.10;98411.63;4987372;28;20056;-81
2022/04/01 11:34:31;;;;;;;34.20;15.10;;;;;;;5.08;70.04;98407.91;4999342;28;20057;-80
2022/04/01 11:37:01;;;;;;;29.05;14.30;;;;;;;5.12;69.93;98400.56;5000208;28;20056;-81
2022/04/01 11:39:28;;;;;;;36.40;16.38;;;;;;;5.08;70.04;98410.53;5020870;28;20135;-81
2022/04/01 11:41:55;;;;;;;36.97;16.58;;;;;;;4.95;70.91;98417.84;5013718;28;20080;-81
2022/04/01 11:44:23;;;;;;;38.85;16.70;;;;;;;4.92;70.81;98420.75;5015260;28;20094;-80
2022/04/01 11:46:54;;;;;;;38.67;17.00;;;;;;;4.86;71.94;98416.88;5013513;28;20547;-81
2022/04/01 11:49:25;;;;;;;40.08;17.10;;;;;;;4.98;71.59;98441.25;5015678;28;20045;-80
2022/04/01 11:51:52;;;;;;;36.25;15.55;;;;;;;4.85;71.08;98441.47;4989471;28;20083;-80
2022/04/01 11:54:20;;;;;;;36.75;16.70;;;;;;;4.90;70.93;98441.09;5012172;28;20051;-80
2022/04/01 11:56:51;;;;;;;39.38;16.85;;;;;;;4.65;70.01;98445.84;4988877;28;20051;-80
2022/04/01 11:59:18;;;;;;;39.63;18.15;;;;;;;4.61;68.85;98449.72;4981448;28;20046;-80
2022/04/01 12:01:58;;;;;;;40.35;18.00;;;;;;;4.75;69.49;98436.19;4990990;28;20041;-81